Time;durP1;ratioP1;P1;durP2;ratioP2;P2;SDS_P1;SDS_P2;PMS_P1;PMS_P2;Temp;Humidity;BMP_temperature;BMP_pressure;BME280_temperature;BME280_humidity;BME280_pressure;Samples;Min_cycle;Max_cycle;Signal;HPM_P1;HPM_P2
2023/07/22 00:01:26;;;;;;;1.92;1.73;;;;;;;;;;4954171;28;20130;-85
2023/07/22 00:03:51;;;;;;;5.20;2.22;;;;;;;;;;4974213;28;20489;-87
2023/07/22 00:06:17;;;;;;;2.88;2.10;;;;;;;;;;4977436;28;20039;-87
2023/07/22 00:08:45;;;;;;;2.88;1.95;;;;;;;;;;4955313;28;20061;-88
2023/07/22 00:11:10;;;;;;;5.63;1.80;;;;;;;;;;4962403;28;20035;-87
2023/07/22 00:13:36;;;;;;;3.78;2.08;;;;;;;;;;4979729;28;20034;-88
2023/07/22 00:16:07;;;;;;;2.90;2.45;;;;;;;;;;4961399;28;20143;-86
2023/07/22 00:18:41;;;;;;;2.20;1.73;;;;;;;;;;4978883;28;20064;-88
2023/07/22 00:21:06;;;;;;;2.38;1.90;;;;;;;;;;4979269;28;20082;-87
2023/07/22 00:23:32;;;;;;;4.18;1.90;;;;;;;;;;4971991;28;20519;-87
2023/07/22 00:25:57;;;;;;;5.95;2.28;;;;;;;;;;4964949;28;20026;-87
2023/07/22 00:28:23;;;;;;;3.97;2.20;;;;;;;;;;4976518;28;20062;-86
2023/07/22 00:30:49;;;;;;;5.43;2.00;;;;;;;;;;4995297;28;20033;-86
2023/07/22 00:33:15;;;;;;;2.90;1.75;;;;;;;;;;4986935;28;20524;-86
2023/07/22 00:35:40;;;;;;;4.25;1.98;;;;;;;;;;4975003;28;20062;-86
2023/07/22 00:38:05;;;;;;;2.28;1.88;;;;;;;;;;4975425;28;20061;-86
2023/07/22 00:40:32;;;;;;;2.63;1.95;;;;;;;;;;4957687;28;20026;-86
2023/07/22 00:42:57;;;;;;;4.35;2.25;;;;;;;;;;4975346;28;20030;-86
2023/07/22 00:45:22;;;;;;;2.45;1.83;;;;;;;;;;4958221;28;20039;-86
2023/07/22 00:47:48;;;;;;;2.45;2.00;;;;;;;;;;4976842;28;20043;-86
2023/07/22 00:50:16;;;;;;;2.53;1.92;;;;;;;;;;4995140;28;20030;-86
2023/07/22 00:52:41;;;;;;;4.35;2.08;;;;;;;;;;4978730;28;20039;-85
2023/07/22 00:55:07;;;;;;;3.97;2.03;;;;;;;;;;4994484;28;20027;-86
2023/07/22 00:57:33;;;;;;;2.28;1.85;;;;;;;;;;4978326;28;20010;-87
2023/07/22 00:59:58;;;;;;;3.00;2.10;;;;;;;;;;4978605;28;20026;-86
2023/07/22 01:02:24;;;;;;;2.45;1.80;;;;;;;;;;4976728;28;20098;-86
2023/07/22 01:04:51;;;;;;;2.90;2.20;;;;;;;;;;4976903;28;20019;-87
2023/07/22 01:07:17;;;;;;;4.63;2.40;;;;;;;;;;4993077;28;20090;-87
2023/07/22 01:09:43;;;;;;;3.25;2.10;;;;;;;;;;4962896;28;20598;-88
2023/07/22 01:12:10;;;;;;;2.72;2.03;;;;;;;;;;4959200;28;20027;-87
2023/07/22 01:14:38;;;;;;;2.30;2.00;;;;;;;;;;4960760;28;20037;-86
2023/07/22 01:17:06;;;;;;;1.98;1.77;;;;;;;;;;4977587;28;20042;-86
2023/07/22 01:19:32;;;;;;;2.58;2.10;;;;;;;;;;4978680;28;20066;-86
2023/07/22 01:22:03;;;;;;;2.17;1.90;;;;;;;;;;4977006;28;20033;-86
2023/07/22 01:24:29;;;;;;;2.75;1.80;;;;;;;;;;4958209;28;20047;-87
2023/07/22 01:26:54;;;;;;;2.78;2.08;;;;;;;;;;4959938;28;20026;-88
2023/07/22 01:29:22;;;;;;;4.82;2.05;;;;;;;;;;4959147;28;20093;-86
2023/07/22 01:31:50;;;;;;;3.40;1.98;;;;;;;;;;4958601;28;20083;-87
2023/07/22 01:34:15;;;;;;;2.78;1.95;;;;;;;;;;4957635;28;20027;-86
2023/07/22 01:36:40;;;;;;;3.97;1.88;;;;;;;;;;4956769;28;20084;-86
2023/07/22 01:39:06;;;;;;;2.55;1.90;;;;;;;;;;4974430;28;20098;-87
2023/07/22 01:41:31;;;;;;;3.85;2.05;;;;;;;;;;4974134;28;20085;-87
2023/07/22 01:43:57;;;;;;;3.13;1.73;;;;;;;;;;4973629;28;20023;-87
2023/07/22 01:46:22;;;;;;;2.88;1.90;;;;;;;;;;4957179;28;20035;-85
2023/07/22 01:48:48;;;;;;;3.35;2.15;;;;;;;;;;4976693;28;20516;-87
2023/07/22 01:51:14;;;;;;;6.70;2.30;;;;;;;;;;4956676;28;20512;-86
2023/07/22 01:53:39;;;;;;;5.32;2.63;;;;;;;;;;4975595;28;20015;-85
2023/07/22 01:56:05;;;;;;;6.72;2.10;;;;;;;;;;4958334;28;20050;-85
2023/07/22 01:58:30;;;;;;;3.78;2.03;;;;;;;;;;4975046;28;20087;-86
2023/07/22 02:00:55;;;;;;;3.92;1.83;;;;;;;;;;4975719;28;20622;-86
2023/07/22 02:03:21;;;;;;;3.20;2.45;;;;;;;;;;4974594;28;20042;-86
2023/07/22 02:05:46;;;;;;;3.25;2.40;;;;;;;;;;4973134;28;20061;-85
2023/07/22 02:08:11;;;;;;;4.47;2.45;;;;;;;;;;4972947;28;20035;-84
2023/07/22 02:10:37;;;;;;;3.95;2.40;;;;;;;;;;4976057;28;20018;-85
2023/07/22 02:13:04;;;;;;;4.72;2.95;;;;;;;;;;4974906;28;20019;-85
2023/07/22 02:15:30;;;;;;;3.65;2.67;;;;;;;;;;4974852;28;20094;-85
2023/07/22 02:17:56;;;;;;;6.82;3.50;;;;;;;;;;4975619;28;20049;-84
2023/07/22 02:20:21;;;;;;;5.70;3.10;;;;;;;;;;4960006;28;20050;-85
2023/07/22 02:22:47;;;;;;;6.32;3.72;;;;;;;;;;4974739;28;20013;-85
2023/07/22 02:25:14;;;;;;;4.55;2.78;;;;;;;;;;4966815;28;20061;-87
2023/07/22 02:27:40;;;;;;;5.65;2.70;;;;;;;;;;4978664;28;20815;-85
2023/07/22 02:30:10;;;;;;;5.72;2.75;;;;;;;;;;4973421;28;20022;-87
2023/07/22 02:32:36;;;;;;;4.97;2.85;;;;;;;;;;4972396;28;20027;-85
2023/07/22 02:35:02;;;;;;;6.85;2.63;;;;;;;;;;4972696;28;20470;-86
2023/07/22 02:37:27;;;;;;;4.30;2.35;;;;;;;;;;4953602;28;20073;-84
2023/07/22 02:39:55;;;;;;;3.08;2.42;;;;;;;;;;4958563;28;20022;-85
2023/07/22 02:42:20;;;;;;;3.45;2.38;;;;;;;;;;4970749;28;20027;-85
2023/07/22 02:44:45;;;;;;;3.45;2.60;;;;;;;;;;4972795;28;20063;-85
2023/07/22 02:47:10;;;;;;;4.68;2.67;;;;;;;;;;4969336;28;20064;-85
2023/07/22 02:49:36;;;;;;;6.00;2.60;;;;;;;;;;4974176;28;20402;-85
2023/07/22 02:52:01;;;;;;;4.72;2.90;;;;;;;;;;4980681;28;20481;-87
2023/07/22 02:54:27;;;;;;;5.43;2.53;;;;;;;;;;4965369;28;20074;-86
2023/07/22 02:56:52;;;;;;;2.90;2.38;;;;;;;;;;4964219;28;20389;-86
2023/07/22 02:59:17;;;;;;;3.13;2.22;;;;;;;;;;4971599;28;20512;-85
2023/07/22 03:01:43;;;;;;;4.32;2.60;;;;;;;;;;4973948;28;20381;-85
2023/07/22 03:04:09;;;;;;;4.68;2.72;;;;;;;;;;4953986;29;20019;-86
2023/07/22 03:06:34;;;;;;;5.03;2.58;;;;;;;;;;4966422;28;20039;-85
2023/07/22 03:09:00;;;;;;;3.17;2.05;;;;;;;;;;4963650;28;20078;-87
2023/07/22 03:11:25;;;;;;;6.53;2.63;;;;;;;;;;4991310;28;20026;-85
2023/07/22 03:13:51;;;;;;;2.65;2.08;;;;;;;;;;4989842;28;20025;-85
2023/07/22 03:16:16;;;;;;;3.58;2.40;;;;;;;;;;4974689;28;20031;-86
2023/07/22 03:18:43;;;;;;;6.90;2.60;;;;;;;;;;4951064;28;20029;-86
2023/07/22 03:21:08;;;;;;;3.65;2.10;;;;;;;;;;4969840;28;20023;-86
2023/07/22 03:23:34;;;;;;;4.75;2.58;;;;;;;;;;4956509;28;20134;-85
2023/07/22 03:26:00;;;;;;;2.90;2.15;;;;;;;;;;4974574;28;20026;-87
2023/07/22 03:28:25;;;;;;;3.03;2.40;;;;;;;;;;4958579;28;20431;-87
2023/07/22 03:30:51;;;;;;;3.22;2.40;;;;;;;;;;4954732;28;20038;-86
2023/07/22 03:33:16;;;;;;;2.20;2.00;;;;;;;;;;4961464;28;20074;-85
2023/07/22 03:35:42;;;;;;;3.15;2.17;;;;;;;;;;4979566;28;20597;-86
2023/07/22 03:38:07;;;;;;;3.63;2.15;;;;;;;;;;4958213;29;20074;-86
2023/07/22 03:40:33;;;;;;;2.80;2.30;;;;;;;;;;4959678;28;20489;-86
2023/07/22 03:42:58;;;;;;;3.63;2.60;;;;;;;;;;4961341;28;20061;-86
2023/07/22 03:45:24;;;;;;;4.10;2.10;;;;;;;;;;4977501;28;20065;-87
2023/07/22 03:47:57;;;;;;;4.07;2.20;;;;;;;;;;4954463;28;20038;-85
2023/07/22 03:50:22;;;;;;;3.05;2.20;;;;;;;;;;4979768;28;20517;-85
2023/07/22 03:52:48;;;;;;;3.55;2.10;;;;;;;;;;4962761;28;20049;-87
2023/07/22 03:55:13;;;;;;;2.55;2.10;;;;;;;;;;4959710;29;20089;-87
2023/07/22 03:57:38;;;;;;;3.63;2.22;;;;;;;;;;4979797;28;20106;-85
2023/07/22 04:00:05;;;;;;;2.60;2.00;;;;;;;;;;4975983;28;20015;-86
2023/07/22 04:02:31;;;;;;;2.92;2.08;;;;;;;;;;4978590;28;20105;-87
2023/07/22 04:04:56;;;;;;;3.35;2.20;;;;;;;;;;4979102;28;20557;-87
2023/07/22 04:07:22;;;;;;;3.33;2.20;;;;;;;;;;4974714;28;20041;-87
2023/07/22 04:09:48;;;;;;;3.80;1.90;;;;;;;;;;4972529;28;20027;-86
2023/07/22 04:12:13;;;;;;;2.92;2.13;;;;;;;;;;4973226;28;20074;-87
2023/07/22 04:14:39;;;;;;;6.03;2.30;;;;;;;;;;4963317;28;20023;-86
2023/07/22 04:17:04;;;;;;;2.63;1.95;;;;;;;;;;4974279;28;20027;-85
2023/07/22 04:19:30;;;;;;;3.70;2.17;;;;;;;;;;4958055;28;20078;-87
2023/07/22 04:21:55;;;;;;;4.22;2.17;;;;;;;;;;4959488;29;20015;-87
2023/07/22 04:24:21;;;;;;;3.65;1.98;;;;;;;;;;4963116;28;20046;-87
2023/07/22 04:26:47;;;;;;;4.38;2.35;;;;;;;;;;4979215;28;20023;-86
2023/07/22 04:29:12;;;;;;;4.97;2.13;;;;;;;;;;4963827;28;20027;-88
2023/07/22 04:31:38;;;;;;;3.75;2.10;;;;;;;;;;4957951;28;20121;-88
2023/07/22 04:34:05;;;;;;;4.43;2.30;;;;;;;;;;4968768;28;20070;-86
2023/07/22 04:36:30;;;;;;;3.38;2.25;;;;;;;;;;4992234;28;20007;-87
2023/07/22 04:38:56;;;;;;;2.85;2.30;;;;;;;;;;4992263;28;20042;-86
2023/07/22 04:41:21;;;;;;;2.42;2.15;;;;;;;;;;4984959;28;20041;-87
2023/07/22 04:43:47;;;;;;;3.13;2.38;;;;;;;;;;4962931;28;20029;-86
2023/07/22 04:46:12;;;;;;;3.72;2.22;;;;;;;;;;4980225;28;20122;-86
2023/07/22 04:48:38;;;;;;;5.28;2.67;;;;;;;;;;4955998;28;20054;-87
2023/07/22 04:51:03;;;;;;;3.70;2.38;;;;;;;;;;4962299;28;20456;-86
2023/07/22 04:53:29;;;;;;;7.53;2.63;;;;;;;;;;4970170;28;20038;-86
2023/07/22 04:55:55;;;;;;;2.75;2.25;;;;;;;;;;4959399;29;20023;-87
2023/07/22 04:58:20;;;;;;;4.10;2.40;;;;;;;;;;4975478;28;20023;-86
2023/07/22 05:00:46;;;;;;;3.88;2.55;;;;;;;;;;4978295;28;20058;-86
2023/07/22 05:03:11;;;;;;;5.13;2.40;;;;;;;;;;4964242;28;20404;-86
2023/07/22 05:05:37;;;;;;;4.35;2.35;;;;;;;;;;4969070;28;20043;-86
2023/07/22 05:08:02;;;;;;;2.63;2.03;;;;;;;;;;4988367;28;20026;-86
2023/07/22 05:10:28;;;;;;;3.17;2.25;;;;;;;;;;4962202;28;20469;-86
2023/07/22 05:12:55;;;;;;;2.70;2.08;;;;;;;;;;4960337;29;20019;-86
2023/07/22 05:15:20;;;;;;;7.97;2.80;;;;;;;;;;4968790;28;20026;-88
2023/07/22 05:17:46;;;;;;;5.97;2.40;;;;;;;;;;4978041;28;20023;-87
2023/07/22 05:20:12;;;;;;;4.32;2.65;;;;;;;;;;4980682;28;20039;-87
2023/07/22 05:22:39;;;;;;;3.65;2.50;;;;;;;;;;4961174;28;20038;-86
2023/07/22 05:25:06;;;;;;;7.85;2.33;;;;;;;;;;4963062;28;20027;-86
2023/07/22 05:27:31;;;;;;;4.32;2.47;;;;;;;;;;4961045;28;20078;-85
2023/07/22 05:29:56;;;;;;;4.40;2.53;;;;;;;;;;4958414;29;20035;-86
2023/07/22 05:32:22;;;;;;;3.58;2.30;;;;;;;;;;4956854;28;20507;-85
2023/07/22 05:34:47;;;;;;;4.20;2.63;;;;;;;;;;4961553;28;20559;-85
2023/07/22 05:37:13;;;;;;;5.22;2.42;;;;;;;;;;4962478;28;20034;-85
2023/07/22 05:39:38;;;;;;;5.43;2.63;;;;;;;;;;4955289;28;20064;-86
2023/07/22 05:42:04;;;;;;;4.25;2.00;;;;;;;;;;4978785;28;20093;-87
2023/07/22 05:44:30;;;;;;;6.38;2.47;;;;;;;;;;4959655;28;20393;-86
2023/07/22 05:46:55;;;;;;;4.80;2.53;;;;;;;;;;4961473;28;20501;-86
2023/07/22 05:49:21;;;;;;;4.60;2.40;;;;;;;;;;4978393;28;20027;-84
2023/07/22 05:51:46;;;;;;;2.92;2.38;;;;;;;;;;4962049;28;20094;-87
2023/07/22 05:54:11;;;;;;;8.40;2.97;;;;;;;;;;4958618;29;20028;-86
2023/07/22 05:56:37;;;;;;;5.97;2.45;;;;;;;;;;4978258;28;20087;-86
2023/07/22 05:59:02;;;;;;;7.65;2.72;;;;;;;;;;4980872;28;20433;-86
2023/07/22 06:01:27;;;;;;;3.83;2.45;;;;;;;;;;4968187;28;20026;-87
2023/07/22 06:03:53;;;;;;;4.07;2.88;;;;;;;;;;4966362;28;20026;-85
2023/07/22 06:06:18;;;;;;;4.20;2.47;;;;;;;;;;4969798;28;20060;-84
2023/07/22 06:08:44;;;;;;;3.97;2.47;;;;;;;;;;4944147;28;20633;-83
2023/07/22 06:11:09;;;;;;;3.53;2.55;;;;;;;;;;4962534;28;20026;-84
2023/07/22 06:13:35;;;;;;;4.40;2.30;;;;;;;;;;4994611;28;20029;-84
2023/07/22 06:16:00;;;;;;;4.07;2.72;;;;;;;;;;4980812;28;20023;-85
2023/07/22 06:18:25;;;;;;;2.33;2.10;;;;;;;;;;4950443;28;20101;-85
2023/07/22 06:20:51;;;;;;;5.72;2.30;;;;;;;;;;4958734;28;20424;-84
2023/07/22 06:23:17;;;;;;;7.78;2.65;;;;;;;;;;4959191;28;20080;-85
2023/07/22 06:25:42;;;;;;;6.00;2.45;;;;;;;;;;4979372;28;20042;-85
2023/07/22 06:28:08;;;;;;;3.65;2.20;;;;;;;;;;4961826;28;20026;-84
2023/07/22 06:30:33;;;;;;;3.80;2.00;;;;;;;;;;4964609;28;20026;-85
2023/07/22 06:32:59;;;;;;;3.00;2.05;;;;;;;;;;4949914;28;20027;-85
2023/07/22 06:35:24;;;;;;;3.05;2.35;;;;;;;;;;4959377;28;20536;-86
2023/07/22 06:37:49;;;;;;;4.32;2.58;;;;;;;;;;4946314;28;20067;-84
2023/07/22 06:40:15;;;;;;;6.00;2.33;;;;;;;;;;4975506;28;20030;-85
2023/07/22 06:42:40;;;;;;;5.90;2.50;;;;;;;;;;4950641;28;20521;-84
2023/07/22 06:45:06;;;;;;;3.75;2.47;;;;;;;;;;4963968;28;20082;-84
2023/07/22 06:47:31;;;;;;;3.67;2.30;;;;;;;;;;4981438;28;20489;-85
2023/07/22 06:49:57;;;;;;;3.03;2.33;;;;;;;;;;4951064;28;20113;-85
2023/07/22 06:52:23;;;;;;;3.35;2.30;;;;;;;;;;4975980;28;20481;-86
2023/07/22 06:54:48;;;;;;;4.25;2.10;;;;;;;;;;4981860;28;20055;-84
2023/07/22 06:57:14;;;;;;;3.45;2.20;;;;;;;;;;4980486;28;20071;-86
2023/07/22 06:59:39;;;;;;;4.13;1.95;;;;;;;;;;4977830;28;20031;-85
2023/07/22 07:02:04;;;;;;;2.47;1.80;;;;;;;;;;4986773;28;20031;-84
2023/07/22 07:04:30;;;;;;;2.08;1.73;;;;;;;;;;4988103;28;20034;-85
2023/07/22 07:06:56;;;;;;;4.22;2.13;;;;;;;;;;4998247;28;20026;-84
2023/07/22 07:09:21;;;;;;;3.47;2.17;;;;;;;;;;4984966;28;20034;-82
2023/07/22 07:11:50;;;;;;;5.72;2.00;;;;;;;;;;4990899;28;20046;-84
2023/07/22 07:14:15;;;;;;;4.78;2.38;;;;;;;;;;4997416;28;20112;-85
2023/07/22 07:16:40;;;;;;;4.07;1.90;;;;;;;;;;4984291;28;20079;-85
2023/07/22 07:19:06;;;;;;;4.45;2.25;;;;;;;;;;4975499;28;20027;-85
2023/07/22 07:21:31;;;;;;;7.20;2.10;;;;;;;;;;4980578;28;20118;-84
2023/07/22 07:23:57;;;;;;;3.83;1.92;;;;;;;;;;4969336;28;20030;-85
2023/07/22 07:26:22;;;;;;;5.28;1.95;;;;;;;;;;4969876;28;20023;-86
2023/07/22 07:28:50;;;;;;;1.77;1.60;;;;;;;;;;4961301;28;20534;-85
2023/07/22 07:31:16;;;;;;;2.75;1.80;;;;;;;;;;4962959;28;20038;-85
2023/07/22 07:33:41;;;;;;;2.50;1.90;;;;;;;;;;4969129;28;20028;-85
2023/07/22 07:36:07;;;;;;;2.83;1.90;;;;;;;;;;4985222;28;20077;-83
2023/07/22 07:38:32;;;;;;;2.65;1.80;;;;;;;;;;4976554;28;20496;-84
2023/07/22 07:41:00;;;;;;;6.65;2.20;;;;;;;;;;4961502;28;20049;-85
2023/07/22 07:43:26;;;;;;;2.58;1.52;;;;;;;;;;4955746;29;20027;-86
2023/07/22 07:46:12;;;;;;;3.00;2.05;;;;;;;;;;4967822;28;20255;-84
2023/07/22 07:48:37;;;;;;;2.55;1.75;;;;;;;;;;4982854;28;20022;-86
2023/07/22 07:51:03;;;;;;;1.92;1.60;;;;;;;;;;4958419;28;20049;-85
2023/07/22 07:53:28;;;;;;;4.10;1.77;;;;;;;;;;4964890;28;20026;-85
2023/07/22 07:55:53;;;;;;;2.13;1.80;;;;;;;;;;4977598;28;20034;-84
2023/07/22 07:58:19;;;;;;;2.65;1.83;;;;;;;;;;4977748;28;20026;-84
2023/07/22 08:00:44;;;;;;;5.15;1.50;;;;;;;;;;4987297;28;20030;-84
2023/07/22 08:03:10;;;;;;;3.28;1.85;;;;;;;;;;4967835;28;20027;-83
2023/07/22 08:05:36;;;;;;;2.22;1.60;;;;;;;;;;4982797;28;20022;-85
2023/07/22 08:08:01;;;;;;;3.15;1.77;;;;;;;;;;4963248;28;20027;-83
2023/07/22 08:10:26;;;;;;;5.00;1.70;;;;;;;;;;4955160;28;20033;-84
2023/07/22 08:12:52;;;;;;;2.42;1.60;;;;;;;;;;4979343;28;20105;-84
2023/07/22 08:15:17;;;;;;;1.98;1.77;;;;;;;;;;4970784;28;20054;-84
2023/07/22 08:17:42;;;;;;;2.10;1.65;;;;;;;;;;4958218;28;20114;-83
2023/07/22 08:20:08;;;;;;;3.30;1.70;;;;;;;;;;4990845;28;20038;-83
2023/07/22 08:22:34;;;;;;;2.95;1.90;;;;;;;;;;4987476;28;20018;-83
2023/07/22 08:24:59;;;;;;;3.20;1.50;;;;;;;;;;4973114;28;20023;-84
2023/07/22 08:27:24;;;;;;;2.03;1.70;;;;;;;;;;4990269;28;20090;-83
2023/07/22 08:29:50;;;;;;;3.03;1.80;;;;;;;;;;4983505;28;20027;-86
2023/07/22 08:32:15;;;;;;;4.28;1.88;;;;;;;;;;4966143;28;20131;-84
2023/07/22 08:34:41;;;;;;;2.38;1.77;;;;;;;;;;4977662;28;20098;-84
2023/07/22 08:37:06;;;;;;;2.55;1.77;;;;;;;;;;4980090;28;20393;-85
2023/07/22 08:39:32;;;;;;;2.63;1.70;;;;;;;;;;4989902;28;20121;-85
2023/07/22 08:42:00;;;;;;;5.55;1.60;;;;;;;;;;4975772;28;20022;-85
2023/07/22 08:44:38;;;;;;;2.25;1.70;;;;;;;;;;4985604;28;20038;-84
2023/07/22 08:47:08;;;;;;;1.60;1.35;;;;;;;;;;4989376;28;20031;-85
2023/07/22 08:49:34;;;;;;;1.95;1.70;;;;;;;;;;4968432;28;20034;-86
2023/07/22 08:52:03;;;;;;;2.13;1.70;;;;;;;;;;4964440;28;20034;-84
2023/07/22 08:54:29;;;;;;;8.10;1.77;;;;;;;;;;4951526;28;20035;-85
2023/07/22 08:56:54;;;;;;;2.95;1.70;;;;;;;;;;4959597;28;20045;-85
2023/07/22 08:59:20;;;;;;;2.42;1.42;;;;;;;;;;4975567;28;20023;-86
2023/07/22 09:01:48;;;;;;;2.13;1.63;;;;;;;;;;4988766;28;20030;-85
2023/07/22 09:04:14;;;;;;;2.60;1.83;;;;;;;;;;4989668;28;20030;-84
2023/07/22 09:06:41;;;;;;;2.95;1.75;;;;;;;;;;4981746;28;20540;-84
2023/07/22 09:09:08;;;;;;;3.25;2.10;;;;;;;;;;4977648;28;20469;-83
2023/07/22 09:11:34;;;;;;;3.97;1.63;;;;;;;;;;4976290;28;20507;-84
2023/07/22 09:14:02;;;;;;;3.88;1.67;;;;;;;;;;4980009;28;20023;-84
2023/07/22 09:16:29;;;;;;;4.35;2.08;;;;;;;;;;4969055;28;20037;-82
2023/07/22 09:18:56;;;;;;;2.00;1.67;;;;;;;;;;4972388;28;20026;-82
2023/07/22 09:21:22;;;;;;;3.60;1.75;;;;;;;;;;4978317;28;20031;-83
2023/07/22 09:23:48;;;;;;;2.25;1.58;;;;;;;;;;4969735;28;20037;-83
2023/07/22 09:26:16;;;;;;;1.95;1.40;;;;;;;;;;4999060;28;20113;-83
2023/07/22 09:29:13;;;;;;;2.53;1.58;;;;;;;;;;4997117;28;20037;-84
2023/07/22 09:32:11;;;;;;;1.52;1.42;;;;;;;;;;4985081;28;20137;-83
2023/07/22 09:34:37;;;;;;;2.88;1.67;;;;;;;;;;4968821;28;20409;-84
2023/07/22 09:37:06;;;;;;;1.52;1.20;;;;;;;;;;4984604;28;20042;-85
2023/07/22 09:39:31;;;;;;;1.33;1.23;;;;;;;;;;4989937;28;20023;-84
2023/07/22 09:41:58;;;;;;;3.47;1.80;;;;;;;;;;4969123;28;20030;-85
2023/07/22 09:44:29;;;;;;;1.63;1.48;;;;;;;;;;4971986;28;20023;-86
2023/07/22 09:46:55;;;;;;;1.53;1.43;;;;;;;;;;4998762;28;20022;-87
2023/07/22 09:49:21;;;;;;;1.45;1.30;;;;;;;;;;4982869;28;20050;-87
2023/07/22 09:51:46;;;;;;;1.70;1.30;;;;;;;;;;4969552;28;20042;-85
2023/07/22 09:54:11;;;;;;;1.75;1.50;;;;;;;;;;4970265;28;20026;-85
2023/07/22 09:56:45;;;;;;;1.73;1.40;;;;;;;;;;4983884;28;20019;-86
2023/07/22 09:59:11;;;;;;;1.30;1.20;;;;;;;;;;4962948;28;20062;-86
2023/07/22 10:01:41;;;;;;;1.83;1.45;;;;;;;;;;4978482;28;20031;-85
2023/07/22 10:04:07;;;;;;;4.13;2.00;;;;;;;;;;4959213;28;20076;-85
2023/07/22 10:06:33;;;;;;;1.70;1.10;;;;;;;;;;4959047;28;20038;-86
2023/07/22 10:09:11;;;;;;;2.00;1.15;;;;;;;;;;4979115;28;20037;-86
2023/07/22 10:11:37;;;;;;;3.70;1.63;;;;;;;;;;4973217;28;20026;-88
2023/07/22 10:14:03;;;;;;;1.65;1.40;;;;;;;;;;4972711;28;20038;-87
2023/07/22 10:16:29;;;;;;;4.75;1.40;;;;;;;;;;4974898;28;20043;-87
2023/07/22 10:18:56;;;;;;;3.55;1.42;;;;;;;;;;4972615;28;20027;-86
2023/07/22 10:21:22;;;;;;;1.35;1.17;;;;;;;;;;4984651;28;20030;-86
2023/07/22 10:23:48;;;;;;;3.78;1.38;;;;;;;;;;4982079;28;20167;-86
2023/07/22 10:26:18;;;;;;;1.65;1.40;;;;;;;;;;4986072;28;20418;-86
2023/07/22 10:28:45;;;;;;;1.98;1.33;;;;;;;;;;4950079;28;20039;-87
2023/07/22 10:31:12;;;;;;;3.08;1.13;;;;;;;;;;4980533;28;20019;-87
2023/07/22 10:33:38;;;;;;;2.60;1.20;;;;;;;;;;4985080;28;20030;-86
2023/07/22 10:36:14;;;;;;;1.20;1.10;;;;;;;;;;4966459;28;20473;-87
2023/07/22 10:38:39;;;;;;;1.50;1.20;;;;;;;;;;4948968;28;20031;-88
2023/07/22 10:41:19;;;;;;;4.07;1.20;;;;;;;;;;4962132;28;20081;-87
2023/07/22 10:44:00;;;;;;;2.00;1.48;;;;;;;;;;4980033;28;20038;-88
2023/07/22 10:46:43;;;;;;;1.27;0.90;;;;;;;;;;4962982;28;20037;-87
2023/07/22 10:49:14;;;;;;;4.80;1.23;;;;;;;;;;4955464;28;20037;-88
2023/07/22 10:51:39;;;;;;;1.43;0.83;;;;;;;;;;4980810;28;20023;-88
2023/07/22 10:54:15;;;;;;;1.17;1.02;;;;;;;;;;4963791;28;20091;-87
2023/07/22 10:56:48;;;;;;;1.10;1.00;;;;;;;;;;4960706;29;20027;-86
2023/07/22 10:59:13;;;;;;;2.30;1.23;;;;;;;;;;4958217;28;20038;-86
2023/07/22 11:01:43;;;;;;;1.20;1.10;;;;;;;;;;4969010;28;20100;-88
2023/07/22 11:04:17;;;;;;;1.70;1.00;;;;;;;;;;4972804;28;20038;-86
2023/07/22 11:06:45;;;;;;;3.30;1.30;;;;;;;;;;4977250;28;20041;-87
2023/07/22 11:09:30;;;;;;;3.75;1.20;;;;;;;;;;4988849;28;20023;-86
2023/07/22 11:11:58;;;;;;;1.35;1.10;;;;;;;;;;4982821;28;20019;-86
2023/07/22 11:14:25;;;;;;;1.20;1.10;;;;;;;;;;4974782;28;20034;-86
2023/07/22 11:16:51;;;;;;;1.77;1.15;;;;;;;;;;4972004;28;20366;-85
2023/07/22 11:19:19;;;;;;;1.30;1.20;;;;;;;;;;4970295;28;20503;-85
2023/07/22 11:21:46;;;;;;;1.77;1.35;;;;;;;;;;4971052;28;20132;-85
2023/07/22 11:24:12;;;;;;;1.20;1.10;;;;;;;;;;4978749;28;20023;-85
2023/07/22 11:26:39;;;;;;;1.50;1.17;;;;;;;;;;4965820;28;20031;-85
2023/07/22 11:29:06;;;;;;;2.53;1.30;;;;;;;;;;4967123;28;20058;-85
2023/07/22 11:31:42;;;;;;;4.50;1.10;;;;;;;;;;4978462;28;20027;-87
2023/07/22 11:34:16;;;;;;;4.90;1.20;;;;;;;;;;4972345;28;20496;-85
2023/07/22 11:36:42;;;;;;;1.30;1.20;;;;;;;;;;4972118;28;20502;-86
2023/07/22 11:39:12;;;;;;;1.30;1.13;;;;;;;;;;4963993;28;20062;-87
2023/07/22 11:41:37;;;;;;;3.53;1.30;;;;;;;;;;4970930;28;20058;-87
2023/07/22 11:44:08;;;;;;;2.58;1.33;;;;;;;;;;4974800;28;20113;-86
2023/07/22 11:46:46;;;;;;;1.98;1.40;;;;;;;;;;4996765;28;20036;-86
2023/07/22 11:49:11;;;;;;;2.30;1.58;;;;;;;;;;4974800;28;20085;-84
2023/07/22 11:51:42;;;;;;;1.77;1.35;;;;;;;;;;4960500;29;20486;-84
2023/07/22 11:54:07;;;;;;;1.45;1.27;;;;;;;;;;4970234;28;20018;-85
2023/07/22 11:56:33;;;;;;;3.47;1.35;;;;;;;;;;4970476;28;20149;-85
2023/07/22 11:58:58;;;;;;;1.45;1.35;;;;;;;;;;4957339;28;20019;-86
2023/07/22 12:01:23;;;;;;;2.05;1.50;;;;;;;;;;4965494;28;20252;-83
2023/07/22 12:03:55;;;;;;;1.15;1.05;;;;;;;;;;4979229;28;20035;-85
2023/07/22 12:06:25;;;;;;;2.88;1.60;;;;;;;;;;4985816;28;20082;-85
2023/07/22 12:08:51;;;;;;;2.75;1.70;;;;;;;;;;4984063;28;20041;-84
2023/07/22 12:11:18;;;;;;;1.98;1.50;;;;;;;;;;4953734;28;20034;-84
2023/07/22 12:13:50;;;;;;;2.58;1.67;;;;;;;;;;4959013;28;20030;-85
2023/07/22 12:16:23;;;;;;;1.42;1.33;;;;;;;;;;4975219;28;20019;-85
2023/07/22 12:18:49;;;;;;;2.83;1.58;;;;;;;;;;4972000;28;20105;-86
2023/07/22 12:21:14;;;;;;;1.35;1.20;;;;;;;;;;4966508;28;20066;-86
2023/07/22 12:23:40;;;;;;;2.45;1.48;;;;;;;;;;4962506;28;20033;-86
2023/07/22 12:26:06;;;;;;;1.85;1.48;;;;;;;;;;4964729;28;20033;-86
2023/07/22 12:28:32;;;;;;;2.58;1.45;;;;;;;;;;4969406;28;20121;-86
2023/07/22 12:30:57;;;;;;;2.10;1.23;;;;;;;;;;4958366;28;20122;-86
2023/07/22 12:33:26;;;;;;;2.08;1.40;;;;;;;;;;4960331;28;20088;-86
2023/07/22 12:35:56;;;;;;;2.33;1.17;;;;;;;;;;4988150;28;20037;-86
2023/07/22 12:38:22;;;;;;;1.95;1.55;;;;;;;;;;4957359;28;20023;-86
2023/07/22 12:40:47;;;;;;;1.60;1.33;;;;;;;;;;4980470;28;20089;-86
2023/07/22 12:43:16;;;;;;;1.55;1.40;;;;;;;;;;4970290;28;20030;-86
2023/07/22 12:45:41;;;;;;;1.58;1.40;;;;;;;;;;4971403;28;20027;-86
2023/07/22 12:48:07;;;;;;;2.30;1.75;;;;;;;;;;4977046;28;20049;-86
2023/07/22 12:50:33;;;;;;;1.95;1.50;;;;;;;;;;4992352;28;20058;-86
2023/07/22 12:52:59;;;;;;;1.92;1.50;;;;;;;;;;4974127;28;20074;-85
2023/07/22 12:55:24;;;;;;;2.45;1.48;;;;;;;;;;4967875;28;20408;-86
2023/07/22 12:57:50;;;;;;;4.55;1.83;;;;;;;;;;4959850;28;20568;-85
2023/07/22 13:00:15;;;;;;;1.67;1.30;;;;;;;;;;4966785;28;20106;-86
2023/07/22 13:02:40;;;;;;;1.73;1.40;;;;;;;;;;4961979;28;20496;-85
2023/07/22 13:05:06;;;;;;;1.77;1.63;;;;;;;;;;4983081;28;20058;-87
2023/07/22 13:07:32;;;;;;;1.92;1.30;;;;;;;;;;4965855;28;20453;-85
2023/07/22 13:10:00;;;;;;;2.25;1.70;;;;;;;;;;4962990;28;20023;-87
2023/07/22 13:12:25;;;;;;;1.73;1.50;;;;;;;;;;4962034;29;20592;-87
2023/07/22 13:14:51;;;;;;;1.50;1.35;;;;;;;;;;4964253;28;20050;-85
2023/07/22 13:17:16;;;;;;;3.72;1.67;;;;;;;;;;4996212;28;20477;-86
2023/07/22 13:19:41;;;;;;;2.28;1.63;;;;;;;;;;4967840;28;20038;-86
2023/07/22 13:22:07;;;;;;;1.75;1.50;;;;;;;;;;4983208;28;20030;-86
2023/07/22 13:24:32;;;;;;;3.35;1.80;;;;;;;;;;4985213;28;20041;-86
2023/07/22 13:26:57;;;;;;;1.60;1.50;;;;;;;;;;4969841;28;20117;-85
2023/07/22 13:29:23;;;;;;;4.65;1.30;;;;;;;;;;4974715;28;20034;-84
2023/07/22 13:31:48;;;;;;;1.77;1.30;;;;;;;;;;4977912;28;20059;-85
2023/07/22 13:34:13;;;;;;;3.95;1.80;;;;;;;;;;4980068;28;20104;-86
2023/07/22 13:36:39;;;;;;;1.65;1.55;;;;;;;;;;4965510;28;20077;-87
2023/07/22 13:39:05;;;;;;;2.45;2.08;;;;;;;;;;4983376;28;20023;-87
2023/07/22 13:41:30;;;;;;;3.80;1.70;;;;;;;;;;4969197;28;20030;-86
2023/07/22 13:43:55;;;;;;;3.92;1.60;;;;;;;;;;4982088;28;20034;-85
2023/07/22 13:46:21;;;;;;;3.20;1.88;;;;;;;;;;4951659;28;20023;-86
2023/07/22 13:48:46;;;;;;;1.55;1.45;;;;;;;;;;4987572;28;20027;-86
2023/07/22 13:51:11;;;;;;;2.28;1.77;;;;;;;;;;4955762;28;20050;-86
2023/07/22 13:53:37;;;;;;;2.85;1.70;;;;;;;;;;4975896;28;20101;-85
2023/07/22 13:56:03;;;;;;;2.75;1.60;;;;;;;;;;4983204;28;20098;-84
2023/07/22 13:58:52;;;;;;;4.15;1.75;;;;;;;;;;4987251;28;20038;-86
2023/07/22 14:01:27;;;;;;;4.00;1.60;;;;;;;;;;4951069;28;20035;-86
2023/07/22 14:03:53;;;;;;;2.30;1.65;;;;;;;;;;4961058;28;20026;-85
2023/07/22 14:06:18;;;;;;;2.28;1.50;;;;;;;;;;4966569;28;20027;-86
2023/07/22 14:08:43;;;;;;;3.47;1.70;;;;;;;;;;4973795;28;20485;-87
2023/07/22 14:11:09;;;;;;;3.22;1.75;;;;;;;;;;4954467;28;20509;-86
2023/07/22 14:13:34;;;;;;;3.70;1.98;;;;;;;;;;4974188;28;20604;-86
2023/07/22 14:16:03;;;;;;;3.10;1.55;;;;;;;;;;4974704;28;20027;-86
2023/07/22 14:18:28;;;;;;;1.58;1.48;;;;;;;;;;4983730;28;20084;-85
2023/07/22 14:20:53;;;;;;;6.97;2.00;;;;;;;;;;4969657;28;20035;-86
2023/07/22 14:23:19;;;;;;;2.67;1.65;;;;;;;;;;4972970;28;20105;-86
2023/07/22 14:25:44;;;;;;;1.75;1.50;;;;;;;;;;4972480;28;20057;-84
2023/07/22 14:28:09;;;;;;;2.55;1.80;;;;;;;;;;4952843;28;20041;-86
2023/07/22 14:30:35;;;;;;;1.90;1.52;;;;;;;;;;4965406;28;20029;-86
2023/07/22 14:33:00;;;;;;;2.60;1.67;;;;;;;;;;4969620;28;20037;-85
2023/07/22 14:35:25;;;;;;;2.33;1.70;;;;;;;;;;4966392;28;20070;-86
2023/07/22 14:37:51;;;;;;;3.67;2.00;;;;;;;;;;4955455;28;20058;-86
2023/07/22 14:40:16;;;;;;;2.97;2.05;;;;;;;;;;4971370;28;20046;-86